Time;durP1;ratioP1;P1;durP2;ratioP2;P2;SDS_P1;SDS_P2;PMS_P1;PMS_P2;Temp;Humidity;BMP_temperature;BMP_pressure;BME280_temperature;BME280_humidity;BME280_pressure;Samples;Min_cycle;Max_cycle;Signal;HPM_P1;HPM_P2
2023/01/13 00:01:24;;;;;;;11.13;2.15;;;9.20;99.90;;;;;;5087132;28;20068;-76
2023/01/13 00:03:51;;;;;;;12.80;2.33;;;9.20;99.90;;;;;;5107784;27;20041;-76
2023/01/13 00:06:20;;;;;;;10.63;1.88;;;9.10;99.90;;;;;;5050467;28;20124;-77
2023/01/13 00:08:49;;;;;;;11.88;1.98;;;9.00;99.90;;;;;;5119484;27;20053;-77
2023/01/13 00:11:15;;;;;;;9.88;2.88;;;9.00;99.90;;;;;;5050561;28;20229;-77
2023/01/13 00:13:41;;;;;;;14.20;2.20;;;9.00;99.90;;;;;;5033726;28;20041;-79
2023/01/13 00:16:10;;;;;;;8.27;2.20;;;8.80;99.90;;;;;;5030439;28;20109;-78
2023/01/13 00:18:36;;;;;;;15.80;2.70;;;8.90;99.90;;;;;;5097843;28;20045;-74
2023/01/13 00:21:11;;;;;;;18.60;3.38;;;8.80;99.90;;;;;;5081971;28;20541;-73
2023/01/13 00:23:36;;;;;;;14.70;2.72;;;8.80;99.90;;;;;;5030386;28;20049;-76
2023/01/13 00:26:11;;;;;;;12.52;2.75;;;8.60;99.90;;;;;;5030274;28;20037;-74
2023/01/13 00:28:37;;;;;;;18.48;2.42;;;8.70;99.90;;;;;;5098798;28;20106;-74
2023/01/13 00:31:08;;;;;;;16.13;2.28;;;8.70;99.90;;;;;;5030121;28;20425;-73
2023/01/13 00:33:34;;;;;;;14.57;2.35;;;8.60;99.90;;;;;;5030683;28;20136;-74
2023/01/13 00:36:02;;;;;;;15.80;2.95;;;8.50;99.90;;;;;;5030273;28;20048;-76
2023/01/13 00:38:29;;;;;;;16.50;2.42;;;8.50;99.90;;;;;;5030062;28;20102;-75
2023/01/13 00:41:00;;;;;;;18.88;3.25;;;8.50;99.90;;;;;;5030155;28;20080;-74
2023/01/13 00:43:27;;;;;;;18.73;2.95;;;8.50;99.90;;;;;;5033066;28;20041;-76
2023/01/13 00:45:54;;;;;;;13.15;2.60;;;8.50;99.90;;;;;;5102900;28;20508;-75
2023/01/13 00:48:21;;;;;;;14.88;2.63;;;8.40;99.90;;;;;;5104791;28;20052;-76
2023/01/13 00:50:57;;;;;;;19.08;3.20;;;8.50;99.90;;;;;;5097630;28;20083;-75
2023/01/13 00:53:24;;;;;;;17.98;2.72;;;8.40;99.90;;;;;;5104152;28;20146;-77
2023/01/13 00:56:01;;;;;;;14.40;2.25;;;8.40;99.90;;;;;;5049819;27;20044;-75
2023/01/13 00:58:27;;;;;;;20.60;3.25;;;8.30;99.90;;;;;;5102542;28;20101;-75
2023/01/13 01:00:53;;;;;;;16.40;3.22;;;8.30;99.90;;;;;;5043035;28;20446;-72
2023/01/13 01:03:19;;;;;;;20.42;2.92;;;8.30;99.90;;;;;;5030108;28;20041;-75
2023/01/13 01:05:44;;;;;;;16.00;2.75;;;8.40;99.90;;;;;;5029906;28;20130;-75
2023/01/13 01:08:10;;;;;;;24.15;3.28;;;8.20;99.90;;;;;;5098407;28;20498;-76
2023/01/13 01:10:36;;;;;;;18.30;3.20;;;8.20;99.90;;;;;;5029789;28;20081;-77
2023/01/13 01:13:01;;;;;;;17.92;3.83;;;8.20;99.90;;;;;;5098556;28;20041;-76
2023/01/13 01:15:27;;;;;;;17.83;3.10;;;8.10;99.90;;;;;;5098130;28;20367;-76
2023/01/13 01:17:53;;;;;;;17.13;3.13;;;8.20;99.90;;;;;;5029703;28;20042;-76
2023/01/13 01:20:18;;;;;;;15.32;3.60;;;8.10;99.90;;;;;;5029190;28;20038;-76
2023/01/13 01:22:44;;;;;;;20.38;2.80;;;8.20;99.90;;;;;;5081288;28;20037;-74
2023/01/13 01:25:10;;;;;;;15.50;2.67;;;8.10;99.90;;;;;;5098187;28;20045;-75
2023/01/13 01:27:35;;;;;;;20.30;3.60;;;8.10;99.90;;;;;;5033427;28;20432;-75
2023/01/13 01:30:01;;;;;;;19.15;3.97;;;8.00;99.90;;;;;;5033705;28;20045;-75
2023/01/13 01:32:27;;;;;;;20.35;3.40;;;8.00;99.90;;;;;;5033188;28;20087;-75
2023/01/13 01:34:52;;;;;;;19.35;3.22;;;8.10;99.90;;;;;;5102124;28;20068;-76
2023/01/13 01:37:18;;;;;;;18.05;2.83;;;7.90;99.90;;;;;;5032965;28;20128;-76
2023/01/13 01:39:44;;;;;;;15.50;3.38;;;8.00;99.90;;;;;;5100966;28;20053;-75
2023/01/13 01:45:18;;;;;;;21.35;3.22;;;8.00;99.90;;;;;;5102376;28;20049;-75
2023/01/13 01:47:47;;;;;;;19.45;3.28;;;7.90;99.90;;;;;;5032748;28;20536;-75
2023/01/13 01:50:13;;;;;;;17.13;3.38;;;8.20;99.90;;;;;;5032091;28;20385;-78
2023/01/13 01:52:42;;;;;;;18.75;3.92;;;7.90;99.90;;;;;;5084505;28;20102;-75
2023/01/13 01:55:38;;;;;;;15.77;3.65;;;8.00;99.90;;;;;;5101653;28;20045;-77
2023/01/13 01:58:32;;;;;;;14.27;2.67;;;7.90;99.90;;;;;;5084165;28;20085;-76
2023/01/13 02:00:58;;;;;;;16.02;3.17;;;7.90;99.90;;;;;;5084003;28;20525;-76
2023/01/13 02:03:24;;;;;;;20.15;3.30;;;7.90;99.90;;;;;;5101771;28;20045;-75
2023/01/13 02:05:51;;;;;;;21.27;3.60;;;7.90;99.90;;;;;;5100938;28;20359;-77
2023/01/13 02:08:18;;;;;;;21.25;3.20;;;7.90;99.90;;;;;;5084328;28;20045;-76
2023/01/13 02:10:49;;;;;;;18.95;3.53;;;8.00;99.90;;;;;;5032537;28;20049;-77
2023/01/13 02:13:15;;;;;;;23.40;3.45;;;7.90;99.90;;;;;;5032279;27;20061;-75
2023/01/13 02:16:12;;;;;;;17.10;3.28;;;7.90;99.90;;;;;;5033052;28;20041;-76
2023/01/13 02:18:59;;;;;;;15.32;2.67;;;7.90;99.90;;;;;;5100339;28;20037;-76
2023/01/13 02:21:48;;;;;;;15.77;3.20;;;7.90;99.90;;;;;;5031968;28;20474;-77
2023/01/13 02:24:52;;;;;;;13.73;2.85;;;7.90;99.90;;;;;;5101088;28;20077;-77
2023/01/13 02:27:36;;;;;;;20.15;3.25;;;7.90;99.90;;;;;;5040144;28;20053;-76
2023/01/13 02:32:58;;;;;;;16.45;2.67;;;7.90;99.90;;;;;;5032577;28;20087;-78
2023/01/13 02:35:31;;;;;;;15.60;2.67;;;7.90;99.90;;;;;;5032176;28;20102;-77
2023/01/13 02:37:59;;;;;;;19.70;2.60;;;7.90;99.90;;;;;;5041635;28;20119;-75
2023/01/13 02:40:48;;;;;;;13.88;2.20;;;7.90;99.90;;;;;;5035153;28;20049;-75
2023/01/13 02:46:16;;;;;;;19.55;3.20;;;7.90;99.90;;;;;;5100793;28;20058;-77
2023/01/13 02:48:45;;;;;;;14.90;2.63;;;7.90;99.90;;;;;;5099869;28;20061;-77
2023/01/13 02:51:18;;;;;;;16.20;2.83;;;7.90;99.90;;;;;;5100090;28;20455;-77
2023/01/13 02:53:51;;;;;;;20.55;4.35;;;8.00;99.90;;;;;;5100478;28;20389;-77
2023/01/13 02:56:16;;;;;;;16.73;2.53;;;7.90;99.90;;;;;;5031802;28;20050;-76
2023/01/13 02:58:45;;;;;;;13.27;2.78;;;8.20;99.90;;;;;;5083191;28;20042;-76
2023/01/13 03:01:11;;;;;;;14.70;2.75;;;7.90;99.90;;;;;;5099907;28;20053;-76
2023/01/13 03:03:37;;;;;;;13.50;2.58;;;7.90;99.90;;;;;;5100034;28;20132;-77
2023/01/13 03:06:28;;;;;;;11.88;2.60;;;7.90;99.90;;;;;;5100154;28;20034;-76
2023/01/13 03:09:10;;;;;;;16.73;2.53;;;7.90;99.90;;;;;;5100051;28;20113;-77
2023/01/13 03:11:49;;;;;;;18.10;3.08;;;7.90;99.90;;;;;;5099857;28;20033;-78
2023/01/13 03:14:33;;;;;;;18.40;3.00;;;7.90;99.90;;;;;;5100090;28;20146;-76
2023/01/13 03:17:22;;;;;;;16.10;2.30;;;7.90;99.90;;;;;;5083100;28;20389;-76
2023/01/13 03:20:15;;;;;;;13.25;2.45;;;8.00;99.90;;;;;;5098692;28;20050;-76
2023/01/13 03:23:05;;;;;;;12.50;2.63;;;7.80;99.90;;;;;;5089587;28;20523;-77
2023/01/13 03:25:37;;;;;;;13.00;3.17;;;7.80;99.90;;;;;;5099674;28;20284;-77
2023/01/13 03:28:08;;;;;;;18.85;3.15;;;7.80;99.90;;;;;;5099249;28;20049;-76
2023/01/13 03:30:51;;;;;;;17.45;2.90;;;7.80;99.90;;;;;;5099958;28;20466;-76
2023/01/13 03:33:35;;;;;;;17.02;4.00;;;7.80;99.90;;;;;;5031463;28;20428;-76
2023/01/13 03:36:09;;;;;;;14.27;3.00;;;7.80;99.90;;;;;;5099674;28;20046;-76
2023/01/13 03:38:46;;;;;;;19.00;3.92;;;7.80;99.90;;;;;;5031004;28;20106;-76
2023/01/13 03:41:36;;;;;;;17.30;2.38;;;8.00;99.90;;;;;;5099747;28;20106;-77
2023/01/13 03:44:26;;;;;;;20.00;2.85;;;7.70;99.90;;;;;;5099385;28;20097;-77
2023/01/13 03:47:03;;;;;;;20.15;2.90;;;7.70;99.90;;;;;;5099358;28;20493;-76
2023/01/13 03:49:49;;;;;;;20.25;2.58;;;7.70;99.90;;;;;;5099021;28;20041;-77
2023/01/13 03:52:35;;;;;;;15.85;3.15;;;7.70;99.90;;;;;;5116193;27;20370;-77
2023/01/13 03:55:09;;;;;;;17.33;2.53;;;7.70;99.90;;;;;;5038376;28;20081;-77
2023/01/13 03:57:40;;;;;;;25.38;3.38;;;7.70;99.90;;;;;;5030693;28;20067;-78
2023/01/13 04:00:09;;;;;;;15.95;2.55;;;7.70;99.90;;;;;;5030650;28;20041;-77
2023/01/13 04:02:45;;;;;;;20.08;2.72;;;7.70;99.90;;;;;;5118025;27;20056;-78
2023/01/13 04:05:13;;;;;;;12.65;2.83;;;7.70;99.90;;;;;;5119572;27;20136;-79
2023/01/13 04:07:44;;;;;;;14.85;2.35;;;7.70;99.90;;;;;;5119429;27;20101;-77
2023/01/13 04:10:12;;;;;;;17.15;2.50;;;7.70;99.90;;;;;;5050415;28;20123;-77
2023/01/13 04:12:59;;;;;;;20.25;3.10;;;7.70;99.90;;;;;;5115816;27;20148;-78
2023/01/13 04:15:37;;;;;;;18.95;2.67;;;7.90;99.90;;;;;;5098894;28;20516;-77
2023/01/13 04:18:19;;;;;;;18.00;2.72;;;7.70;99.90;;;;;;5098896;28;20090;-77
2023/01/13 04:20:47;;;;;;;17.33;3.28;;;7.70;99.90;;;;;;5030373;28;20067;-77
2023/01/13 04:23:14;;;;;;;20.67;2.90;;;7.70;99.90;;;;;;5097958;28;20128;-77
2023/01/13 04:25:40;;;;;;;19.00;2.67;;;7.70;99.90;;;;;;5030464;28;20053;-78
2023/01/13 04:28:06;;;;;;;15.18;2.63;;;7.70;99.90;;;;;;5030198;28;20042;-77
2023/01/13 04:30:32;;;;;;;14.88;3.03;;;7.70;99.90;;;;;;5112403;28;20055;-77
2023/01/13 04:32:58;;;;;;;19.73;2.80;;;7.70;99.90;;;;;;5095918;28;20047;-77
2023/01/13 04:35:24;;;;;;;15.77;3.58;;;7.70;99.90;;;;;;5117925;28;20062;-80
2023/01/13 04:37:50;;;;;;;20.25;3.28;;;7.70;99.90;;;;;;5114759;28;20105;-78
2023/01/13 04:40:15;;;;;;;15.85;2.35;;;7.70;99.90;;;;;;5113160;28;20425;-77
2023/01/13 04:42:43;;;;;;;12.70;3.00;;;7.80;99.90;;;;;;5112716;28;20047;-77
2023/01/13 04:45:10;;;;;;;20.00;2.95;;;7.70;99.90;;;;;;5095647;28;20140;-76
2023/01/13 04:47:35;;;;;;;17.98;2.80;;;7.80;99.90;;;;;;5111999;28;20493;-77
2023/01/13 04:50:01;;;;;;;15.55;2.50;;;7.80;99.90;;;;;;5112059;28;20136;-76
2023/01/13 04:52:27;;;;;;;13.38;2.50;;;7.80;99.90;;;;;;5112695;28;20043;-76
2023/01/13 04:54:52;;;;;;;20.70;3.08;;;7.70;99.90;;;;;;5112453;28;20114;-76
2023/01/13 04:57:18;;;;;;;15.38;2.22;;;7.80;99.90;;;;;;5113786;28;20040;-75
2023/01/13 04:59:44;;;;;;;17.75;2.45;;;7.70;99.90;;;;;;5113465;28;20036;-76
2023/01/13 05:02:13;;;;;;;20.13;2.80;;;7.80;99.90;;;;;;5117060;27;20121;-76
2023/01/13 05:04:39;;;;;;;16.02;2.53;;;7.70;99.90;;;;;;5119602;27;20047;-79
2023/01/13 05:07:05;;;;;;;17.67;2.90;;;7.80;99.90;;;;;;5127263;27;20087;-78
2023/01/13 05:09:30;;;;;;;16.02;2.28;;;7.70;99.90;;;;;;5138018;27;20035;-76
2023/01/13 05:17:26;;;;;;;15.75;3.08;;;7.80;99.90;;;;;;5137270;27;20051;-76
2023/01/13 05:19:52;;;;;;;13.52;2.35;;;7.80;99.90;;;;;;5118816;27;20127;-78
2023/01/13 05:27:52;;;;;;;16.45;3.35;;;7.90;99.90;;;;;;5136808;27;20047;-75
2023/01/13 05:30:19;;;;;;;17.30;2.83;;;7.80;99.90;;;;;;5136362;27;20055;-78
2023/01/13 05:32:45;;;;;;;16.10;3.03;;;7.90;99.90;;;;;;5136898;27;20043;-77
2023/01/13 05:35:11;;;;;;;16.52;3.15;;;7.90;99.90;;;;;;5137573;27;20060;-77
2023/01/13 05:37:36;;;;;;;18.45;2.90;;;7.90;99.90;;;;;;5135955;27;20042;-76
2023/01/13 05:45:31;;;;;;;16.30;3.08;;;8.30;99.90;;;;;;5137270;27;20039;-76
2023/01/13 05:47:57;;;;;;;19.20;2.72;;;8.00;99.90;;;;;;5137111;27;20444;-78
2023/01/13 05:50:23;;;;;;;16.58;2.80;;;8.00;99.90;;;;;;5135802;27;20043;-78
2023/01/13 05:52:49;;;;;;;19.60;3.08;;;8.00;99.90;;;;;;5137294;27;20379;-78
2023/01/13 05:55:15;;;;;;;18.88;3.03;;;8.00;99.90;;;;;;5137596;27;20089;-75
2023/01/13 05:57:41;;;;;;;16.88;2.67;;;8.00;99.90;;;;;;5118952;27;20472;-76
2023/01/13 06:00:07;;;;;;;16.20;2.30;;;8.00;99.90;;;;;;5137002;27;20126;-76
2023/01/13 06:02:33;;;;;;;15.40;2.83;;;8.00;99.90;;;;;;5135399;27;20043;-76
2023/01/13 06:04:59;;;;;;;21.77;3.10;;;8.00;99.90;;;;;;5136076;27;20125;-75
2023/01/13 06:07:25;;;;;;;10.45;2.28;;;8.00;99.90;;;;;;5136157;27;20512;-77
2023/01/13 06:09:50;;;;;;;16.70;2.47;;;8.00;99.90;;;;;;5136879;27;20357;-76
2023/01/13 06:12:16;;;;;;;13.80;2.38;;;8.00;99.90;;;;;;5135408;27;20035;-76
2023/01/13 06:14:42;;;;;;;14.15;2.33;;;8.10;99.90;;;;;;5136945;27;20088;-79
2023/01/13 06:17:11;;;;;;;16.10;2.22;;;8.10;99.90;;;;;;5136598;27;20088;-77
2023/01/13 06:19:38;;;;;;;15.18;2.28;;;8.00;99.90;;;;;;5136254;27;20357;-82
2023/01/13 06:22:12;;;;;;;16.35;2.55;;;8.00;99.90;;;;;;5135649;27;20035;-76
2023/01/13 06:24:38;;;;;;;14.45;2.60;;;8.00;99.90;;;;;;5135403;27;20054;-76
2023/01/13 06:27:06;;;;;;;18.10;2.30;;;8.00;99.90;;;;;;5136554;27;20043;-76
2023/01/13 06:29:32;;;;;;;11.95;1.95;;;8.00;99.90;;;;;;5134975;27;20559;-77
2023/01/13 06:32:02;;;;;;;14.05;2.90;;;8.00;99.90;;;;;;5141804;27;20061;-78
2023/01/13 06:34:28;;;;;;;11.52;1.98;;;8.00;99.90;;;;;;5124823;27;20043;-76
2023/01/13 06:36:54;;;;;;;11.40;2.90;;;8.00;99.90;;;;;;5136606;27;20181;-79
2023/01/13 06:39:26;;;;;;;12.43;2.10;;;7.90;99.90;;;;;;5135197;27;20047;-78
2023/01/13 06:44:38;;;;;;;14.80;1.83;;;7.90;99.90;;;;;;5135313;27;20051;-79
2023/01/13 06:47:04;;;;;;;12.07;2.17;;;8.00;99.90;;;;;;5134971;27;20046;-79
2023/01/13 06:49:29;;;;;;;15.80;1.48;;;8.00;99.90;;;;;;5117448;27;20042;-79
2023/01/13 06:51:55;;;;;;;10.38;1.70;;;8.00;99.90;;;;;;5100754;27;20051;-78
2023/01/13 06:54:21;;;;;;;10.02;1.90;;;8.00;99.90;;;;;;5117768;27;20084;-77
2023/01/13 06:56:47;;;;;;;9.80;2.10;;;8.00;99.90;;;;;;5135750;27;20043;-79
2023/01/13 06:59:12;;;;;;;11.98;1.20;;;8.00;99.90;;;;;;5134782;27;20475;-78
2023/01/13 07:01:38;;;;;;;9.00;1.80;;;7.90;99.90;;;;;;5135450;27;20054;-75
2023/01/13 07:04:04;;;;;;;6.28;1.10;;;8.00;99.90;;;;;;5134896;27;20050;-78
2023/01/13 07:06:30;;;;;;;12.82;1.83;;;8.00;99.90;;;;;;5117591;27;20432;-76
2023/01/13 07:08:55;;;;;;;8.63;1.42;;;8.00;99.90;;;;;;5134515;27;20031;-77
2023/01/13 07:11:21;;;;;;;10.85;1.92;;;7.90;99.90;;;;;;5134459;27;20054;-77
2023/01/13 07:16:31;;;;;;;12.80;1.77;;;8.00;99.90;;;;;;5134599;27;20088;-76
2023/01/13 07:18:57;;;;;;;10.48;1.58;;;7.90;99.90;;;;;;5133844;27;20039;-79
2023/01/13 07:21:22;;;;;;;8.50;1.23;;;7.90;99.90;;;;;;5134326;27;20047;-79
2023/01/13 07:23:48;;;;;;;11.10;1.55;;;7.90;99.90;;;;;;5133427;27;20035;-76
2023/01/13 07:26:15;;;;;;;11.65;0.98;;;8.00;99.90;;;;;;5134017;27;20495;-78
2023/01/13 07:28:41;;;;;;;11.07;1.75;;;7.80;99.90;;;;;;5125897;27;20051;-77
2023/01/13 07:31:19;;;;;;;8.10;1.33;;;7.90;99.90;;;;;;5103178;28;20465;-78
2023/01/13 07:33:46;;;;;;;7.32;1.60;;;8.00;99.90;;;;;;5051099;28;20048;-80
2023/01/13 07:36:12;;;;;;;11.52;1.15;;;8.00;99.90;;;;;;5120353;27;20071;-78
2023/01/13 07:38:38;;;;;;;9.57;1.33;;;7.80;99.90;;;;;;5085589;28;20049;-79
2023/01/13 07:43:50;;;;;;;9.02;1.15;;;7.70;99.90;;;;;;5120633;27;20045;-84
2023/01/13 07:46:16;;;;;;;14.18;1.85;;;7.80;99.90;;;;;;5103043;28;20506;-83
2023/01/13 07:48:42;;;;;;;10.02;1.45;;;7.60;99.90;;;;;;5102449;28;20067;-85
2023/01/13 07:51:10;;;;;;;10.45;1.25;;;7.70;99.90;;;;;;5119953;27;20523;-82
2023/01/13 07:53:36;;;;;;;8.20;1.23;;;7.70;99.90;;;;;;5103205;28;20037;-81
2023/01/13 07:56:04;;;;;;;8.88;1.63;;;7.50;99.90;;;;;;5120586;27;20446;-82
2023/01/13 07:58:32;;;;;;;9.27;1.35;;;7.50;99.90;;;;;;5120088;27;20083;-82
2023/01/13 08:00:58;;;;;;;12.63;1.48;;;7.40;99.90;;;;;;5099463;28;20389;-80
2023/01/13 08:03:25;;;;;;;9.75;1.38;;;7.40;99.90;;;;;;5031070;28;20045;-83
2023/01/13 08:05:51;;;;;;;9.13;1.42;;;7.50;99.90;;;;;;5046365;28;20371;-84
2023/01/13 08:08:17;;;;;;;4.97;1.55;;;7.30;99.90;;;;;;5103875;28;20086;-82
2023/01/13 08:10:43;;;;;;;14.45;2.42;;;7.50;99.90;;;;;;5119608;27;20045;-81
2023/01/13 08:13:16;;;;;;;8.05;1.65;;;7.30;99.90;;;;;;5102888;28;20047;-86
2023/01/13 08:15:43;;;;;;;8.43;1.52;;;7.30;99.90;;;;;;5119427;27;20473;-80
2023/01/13 08:18:09;;;;;;;10.88;1.40;;;7.40;99.90;;;;;;5100318;27;20097;-79
2023/01/13 08:20:34;;;;;;;15.63;1.80;;;8.20;99.90;;;;;;5088048;28;20389;-83
2023/01/13 08:23:00;;;;;;;12.25;1.95;;;7.30;99.90;;;;;;5097881;28;20041;-78
2023/01/13 08:25:27;;;;;;;9.80;1.30;;;7.30;99.90;;;;;;5119491;28;20037;-80
2023/01/13 08:27:54;;;;;;;12.45;1.75;;;7.50;99.90;;;;;;5050122;28;20418;-79
2023/01/13 08:30:20;;;;;;;11.57;1.50;;;7.30;99.90;;;;;;5118996;28;20052;-78
2023/01/13 08:32:47;;;;;;;12.65;2.55;;;7.30;99.90;;;;;;5086579;28;20119;-78
2023/01/13 08:35:14;;;;;;;9.52;1.40;;;7.40;99.90;;;;;;5054956;28;20064;-77
2023/01/13 08:37:40;;;;;;;7.68;1.50;;;7.30;99.90;;;;;;5125003;27;20457;-83
2023/01/13 08:40:07;;;;;;;8.88;1.20;;;7.40;99.90;;;;;;5123783;27;20037;-79
2023/01/13 08:42:32;;;;;;;13.45;2.25;;;7.30;99.90;;;;;;5123201;27;20036;-79
2023/01/13 08:44:58;;;;;;;11.57;1.92;;;7.50;99.90;;;;;;5123594;27;20048;-79
2023/01/13 08:47:26;;;;;;;14.55;1.70;;;7.70;99.90;;;;;;5105991;28;20041;-78
2023/01/13 08:49:52;;;;;;;13.52;1.88;;;7.50;99.90;;;;;;5123169;27;20474;-79
2023/01/13 08:52:18;;;;;;;11.13;1.52;;;7.50;99.90;;;;;;5123751;27;20125;-80
2023/01/13 08:54:43;;;;;;;12.45;1.85;;;7.50;99.90;;;;;;5123637;27;20033;-81
2023/01/13 08:57:09;;;;;;;17.35;2.60;;;7.50;99.90;;;;;;5053615;28;20055;-80
2023/01/13 08:59:35;;;;;;;12.52;2.17;;;7.50;99.90;;;;;;5105916;28;20037;-82
2023/01/13 09:02:02;;;;;;;9.50;1.80;;;7.60;99.90;;;;;;5123174;27;20060;-79
2023/01/13 09:04:28;;;;;;;9.85;1.85;;;7.60;99.90;;;;;;5123488;27;20085;-81
2023/01/13 09:06:55;;;;;;;9.27;1.95;;;7.60;99.90;;;;;;5123021;27;20037;-80
2023/01/13 09:09:21;;;;;;;12.82;1.65;;;7.60;99.90;;;;;;5122660;27;20474;-78
2023/01/13 09:14:36;;;;;;;13.63;2.47;;;7.60;99.90;;;;;;5122779;27;20470;-83
2023/01/13 09:17:02;;;;;;;18.52;1.88;;;7.60;99.90;;;;;;5122983;27;20037;-79
2023/01/13 09:19:28;;;;;;;13.82;2.65;;;7.60;99.90;;;;;;5052821;28;20037;-79
2023/01/13 09:21:55;;;;;;;11.43;1.73;;;7.70;99.90;;;;;;5122757;27;20370;-80
2023/01/13 09:24:21;;;;;;;11.43;1.88;;;7.60;99.90;;;;;;5122372;27;20033;-80
2023/01/13 09:26:47;;;;;;;9.55;1.50;;;7.70;99.90;;;;;;5122511;27;20185;-78
2023/01/13 09:29:14;;;;;;;10.07;1.83;;;7.60;99.90;;;;;;5052668;28;20102;-82
2023/01/13 09:31:40;;;;;;;14.55;1.88;;;7.90;99.90;;;;;;5053565;28;20057;-78
2023/01/13 09:36:51;;;;;;;9.65;1.50;;;7.50;99.90;;;;;;5113151;27;20440;-80
2023/01/13 09:39:17;;;;;;;11.15;1.60;;;7.50;99.90;;;;;;5114861;27;20045;-82
2023/01/13 09:44:54;;;;;;;11.93;2.55;;;7.50;99.90;;;;;;5053725;27;20057;-78
2023/01/13 09:47:34;;;;;;;10.00;1.45;;;7.40;99.90;;;;;;5123357;27;20101;-76
2023/01/13 09:50:12;;;;;;;10.30;1.35;;;7.30;99.90;;;;;;5121467;27;20386;-77
2023/01/13 09:52:38;;;;;;;17.50;2.05;;;7.30;99.90;;;;;;5053094;27;20049;-74
2023/01/13 09:55:08;;;;;;;12.18;1.25;;;7.10;99.90;;;;;;5049148;28;20056;-75
2023/01/13 09:57:36;;;;;;;11.38;1.70;;;7.10;99.90;;;;;;5116465;27;20041;-80
2023/01/13 10:00:23;;;;;;;16.10;2.00;;;7.20;99.90;;;;;;5052728;28;20496;-82
2023/01/13 10:02:51;;;;;;;10.95;1.40;;;7.10;99.90;;;;;;5122393;27;20037;-78
2023/01/13 10:05:39;;;;;;;15.38;1.85;;;7.10;99.90;;;;;;5122013;27;20063;-81
2023/01/13 10:08:18;;;;;;;11.07;1.98;;;7.10;99.90;;;;;;5052206;28;20029;-78
2023/01/13 10:10:54;;;;;;;13.57;2.35;;;7.10;99.90;;;;;;5131310;27;20041;-78
2023/01/13 10:13:30;;;;;;;14.65;1.90;;;7.00;99.90;;;;;;5119223;27;20044;-77
2023/01/13 10:16:06;;;;;;;15.23;2.47;;;7.00;99.90;;;;;;5127535;27;20045;-76
2023/01/13 10:18:52;;;;;;;13.98;1.80;;;7.10;99.90;;;;;;5121105;27;20032;-78
2023/01/13 10:21:27;;;;;;;13.85;2.17;;;7.10;99.90;;;;;;5049256;28;20049;-77
2023/01/13 10:24:06;;;;;;;9.80;2.08;;;7.30;99.90;;;;;;5121039;27;20048;-76
2023/01/13 10:26:56;;;;;;;13.30;1.55;;;7.10;99.90;;;;;;5054999;28;20070;-79
2023/01/13 10:29:28;;;;;;;20.10;2.60;;;7.10;99.90;;;;;;5121699;27;20048;-76
2023/01/13 10:31:55;;;;;;;13.45;2.03;;;7.20;99.90;;;;;;5128607;27;20045;-80
2023/01/13 10:34:22;;;;;;;16.92;2.30;;;7.00;99.90;;;;;;5060423;28;20033;-76
2023/01/13 10:37:07;;;;;;;9.68;1.70;;;7.10;99.90;;;;;;5047865;28;20084;-76
2023/01/13 10:39:42;;;;;;;11.32;2.33;;;7.00;99.90;;;;;;5119472;27;20532;-74
2023/01/13 10:42:15;;;;;;;18.08;2.70;;;7.10;99.90;;;;;;5119805;27;20049;-77
2023/01/13 10:44:55;;;;;;;11.40;1.70;;;7.20;99.90;;;;;;5049536;28;20048;-74
2023/01/13 10:47:33;;;;;;;11.43;1.45;;;7.10;99.90;;;;;;5099783;28;20293;-76
2023/01/13 10:50:00;;;;;;;9.95;1.95;;;7.00;99.90;;;;;;5118005;27;20497;-76
2023/01/13 10:52:35;;;;;;;13.23;3.35;;;7.20;99.90;;;;;;5051346;28;20041;-77
2023/01/13 10:55:01;;;;;;;12.30;2.17;;;6.90;99.90;;;;;;5049368;28;20521;-76
2023/01/13 10:57:27;;;;;;;10.00;1.42;;;7.20;99.90;;;;;;5050228;28;20037;-73
2023/01/13 10:59:55;;;;;;;11.23;1.55;;;6.70;99.90;;;;;;5050518;28;20036;-76
2023/01/13 11:02:33;;;;;;;10.93;1.88;;;7.20;99.90;;;;;;5119618;27;20041;-77
2023/01/13 11:05:20;;;;;;;9.52;1.40;;;7.20;99.90;;;;;;5048535;28;20486;-74
2023/01/13 11:07:50;;;;;;;12.77;1.50;;;7.20;99.90;;;;;;5118872;27;20037;-75
2023/01/13 11:10:26;;;;;;;9.98;1.30;;;7.20;99.90;;;;;;5111718;27;20140;-77
2023/01/13 11:13:12;;;;;;;12.35;1.88;;;7.30;99.90;;;;;;5119309;27;20040;-75
2023/01/13 11:15:41;;;;;;;11.40;1.67;;;7.30;99.90;;;;;;5117143;27;20044;-79
2023/01/13 11:18:21;;;;;;;12.57;1.70;;;7.30;99.90;;;;;;5049144;28;20044;-75
2023/01/13 11:20:49;;;;;;;13.55;1.98;;;7.30;99.90;;;;;;5048692;28;20045;-74
2023/01/13 11:23:27;;;;;;;11.07;1.88;;;7.30;99.90;;;;;;5047520;28;20377;-75
2023/01/13 11:26:01;;;;;;;10.98;1.65;;;7.30;99.90;;;;;;5118081;27;20044;-76
2023/01/13 11:28:49;;;;;;;12.80;3.00;;;7.40;99.90;;;;;;5100921;28;20033;-73
2023/01/13 11:31:36;;;;;;;13.00;2.53;;;7.30;99.90;;;;;;5050244;28;20061;-78
2023/01/13 11:34:06;;;;;;;15.07;1.88;;;7.30;99.90;;;;;;5050486;28;20389;-73
2023/01/13 11:36:45;;;;;;;15.10;3.05;;;7.40;99.90;;;;;;5118950;27;20057;-75
2023/01/13 11:39:24;;;;;;;8.30;2.20;;;7.40;99.90;;;;;;5057129;28;20052;-76
2023/01/13 11:42:20;;;;;;;9.45;1.85;;;7.40;99.90;;;;;;5140049;27;20056;-76
2023/01/13 11:45:26;;;;;;;10.55;1.33;;;7.40;99.90;;;;;;5070096;28;20052;-74
2023/01/13 11:47:57;;;;;;;14.25;1.95;;;7.50;99.90;;;;;;5139760;27;20572;-78
2023/01/13 11:50:44;;;;;;;9.02;1.30;;;7.40;99.90;;;;;;5069963;28;20041;-78
2023/01/13 11:53:25;;;;;;;8.68;1.48;;;7.40;99.90;;;;;;5070164;27;20036;-74
2023/01/13 11:55:59;;;;;;;10.02;1.92;;;7.40;99.90;;;;;;5070164;27;20047;-73
2023/01/13 11:58:43;;;;;;;17.02;4.38;;;7.40;99.90;;;;;;5139599;27;20385;-79
2023/01/13 12:01:18;;;;;;;8.95;1.60;;;7.40;99.90;;;;;;5139816;27;20399;-77
2023/01/13 12:04:05;;;;;;;10.70;1.95;;;7.50;99.90;;;;;;5060027;28;20036;-70
2023/01/13 12:06:31;;;;;;;15.52;1.63;;;7.50;99.90;;;;;;5139892;27;20052;-75
2023/01/13 12:09:15;;;;;;;10.13;1.20;;;7.50;99.90;;;;;;5139038;27;20040;-74
2023/01/13 12:12:21;;;;;;;11.35;1.45;;;7.60;99.90;;;;;;5069890;27;20088;-78
2023/01/13 12:15:05;;;;;;;8.48;1.33;;;7.70;99.90;;;;;;5067502;28;20037;-76
2023/01/13 12:17:48;;;;;;;9.02;1.55;;;7.70;99.90;;;;;;5112788;27;20041;-72
2023/01/13 12:20:41;;;;;;;8.43;1.10;;;7.70;99.90;;;;;;5114121;27;20112;-74
2023/01/13 12:23:20;;;;;;;9.30;1.58;;;7.80;99.90;;;;;;5119351;27;20056;-76
2023/01/13 12:25:51;;;;;;;11.52;1.20;;;7.80;99.90;;;;;;5049734;28;20041;-75
2023/01/13 12:28:43;;;;;;;10.45;1.60;;;7.80;99.90;;;;;;5051682;28;20052;-74
2023/01/13 12:31:11;;;;;;;8.65;0.95;;;7.80;99.90;;;;;;5043050;28;20444;-76
2023/01/13 12:33:52;;;;;;;11.82;2.55;;;7.90;99.90;;;;;;5121529;28;20045;-77
2023/01/13 12:36:55;;;;;;;9.35;1.10;;;7.80;99.90;;;;;;5053479;28;20044;-74
2023/01/13 12:39:39;;;;;;;6.57;1.10;;;7.80;99.90;;;;;;5118776;28;20046;-73
2023/01/13 12:45:11;;;;;;;12.30;2.15;;;7.70;99.90;;;;;;5029457;28;20049;-72
2023/01/13 12:47:45;;;;;;;7.88;1.33;;;7.70;99.90;;;;;;5114296;27;20041;-74
2023/01/13 12:50:22;;;;;;;6.78;1.00;;;7.80;99.90;;;;;;5046644;28;20041;-76
2023/01/13 12:52:53;;;;;;;7.05;0.95;;;7.80;99.90;;;;;;5048116;28;20084;-75
2023/01/13 12:55:26;;;;;;;9.20;1.60;;;7.90;99.90;;;;;;5100197;28;20044;-73
2023/01/13 12:57:56;;;;;;;9.82;1.05;;;8.00;99.90;;;;;;5048065;28;20045;-74
2023/01/13 13:00:22;;;;;;;7.32;1.30;;;8.00;99.90;;;;;;5117364;28;20051;-75
2023/01/13 13:03:27;;;;;;;8.30;1.10;;;8.00;99.90;;;;;;5049194;28;20049;-78
2023/01/13 13:06:17;;;;;;;8.15;1.10;;;8.00;99.90;;;;;;5117868;28;20098;-73
2023/01/13 13:08:46;;;;;;;8.95;1.73;;;8.10;99.90;;;;;;5049576;27;20041;-72
2023/01/13 13:13:16;;;;;;;6.00;0.90;;;8.10;99.90;;;;;;5049046;28;20148;-74
2023/01/13 13:14:03;;;;;;;15.70;4.10;;;8.10;99.90;;;;;;5048881;28;20376;-73
2023/01/13 13:16:29;;;;;;;8.45;0.95;;;8.10;99.90;;;;;;5047747;28;20048;-74
2023/01/13 13:19:16;;;;;;;8.23;1.00;;;8.20;99.90;;;;;;5049115;27;20041;-75
2023/01/13 13:22:13;;;;;;;5.43;1.00;;;8.20;99.90;;;;;;5049936;28;20386;-76
2023/01/13 13:24:40;;;;;;;9.85;1.00;;;8.20;99.90;;;;;;5120926;27;20136;-75
2023/01/13 13:27:25;;;;;;;7.18;1.08;;;8.20;99.90;;;;;;5121055;27;20048;-83
2023/01/13 13:29:51;;;;;;;8.30;1.40;;;8.10;99.90;;;;;;5121286;27;20103;-75
2023/01/13 13:32:43;;;;;;;5.43;0.82;;;8.30;99.90;;;;;;5049009;27;20069;-72
2023/01/13 13:35:30;;;;;;;5.30;0.90;;;8.30;99.90;;;;;;5052145;28;20041;-74
2023/01/13 13:47:03;;;;;;;7.63;1.02;;;8.30;99.90;;;;;;5146463;27;20439;-78
2023/01/13 13:49:48;;;;;;;3.85;0.98;;;8.30;99.90;;;;;;5103497;28;20116;-74
2023/01/13 13:52:39;;;;;;;5.68;0.90;;;8.30;99.90;;;;;;5119059;27;20052;-77
2023/01/13 13:55:17;;;;;;;6.60;0.90;;;8.30;99.90;;;;;;5120461;27;20355;-76
2023/01/13 13:57:46;;;;;;;5.78;0.85;;;8.30;99.90;;;;;;5116503;27;20045;-81
2023/01/13 14:00:16;;;;;;;9.40;0.85;;;8.20;99.90;;;;;;5043615;27;20065;-79
2023/01/13 14:03:02;;;;;;;7.70;0.98;;;8.30;99.90;;;;;;5049332;27;20359;-76
2023/01/13 14:05:35;;;;;;;5.57;1.10;;;8.30;99.90;;;;;;5050207;28;20371;-78
2023/01/13 14:08:14;;;;;;;6.55;0.82;;;8.30;99.90;;;;;;5051202;27;20078;-77